Time;durP1;ratioP1;P1;durP2;ratioP2;P2;SDS_P1;SDS_P2;PMS_P1;PMS_P2;Temp;Humidity;BMP_temperature;BMP_pressure;BME280_temperature;BME280_humidity;BME280_pressure;Samples;Min_cycle;Max_cycle;Signal;HPM_P1;HPM_P2
2022/01/05 00:00:13;;;;;;;2.03;1.15;;;;;;;4.47;79.86;96661.00;2611069;28;20041;-79
2022/01/05 00:01:49;;;;;;;1.65;1.20;;;;;;;4.39;80.64;96666.44;2611011;28;20483;-80
2022/01/05 00:03:04;;;;;;;1.83;1.10;;;;;;;4.33;81.29;96664.06;2610861;28;20084;-79
2022/01/05 00:04:20;;;;;;;3.15;1.70;;;;;;;4.28;81.29;96664.19;2610882;28;20049;-79
2022/01/05 00:05:35;;;;;;;3.38;2.00;;;;;;;4.23;81.57;96660.91;2610856;28;20399;-80
2022/01/05 00:06:51;;;;;;;3.47;1.70;;;;;;;4.19;82.09;96667.94;2610741;28;20053;-79
2022/01/05 00:08:07;;;;;;;4.60;1.83;;;;;;;4.18;82.03;96666.25;2611003;28;20044;-80
2022/01/05 00:09:22;;;;;;;3.75;2.05;;;;;;;4.18;82.09;96676.59;2610717;28;20055;-79
2022/01/05 00:10:38;;;;;;;3.97;2.20;;;;;;;4.34;81.71;96684.75;2610825;28;20513;-79
2022/01/05 00:11:54;;;;;;;5.07;2.75;;;;;;;4.53;80.52;96691.94;2610743;28;20045;-79
2022/01/05 00:13:10;;;;;;;4.13;2.33;;;;;;;4.53;80.62;96690.16;2610905;28;20084;-79
2022/01/05 00:14:25;;;;;;;3.65;2.47;;;;;;;4.59;80.04;96685.69;2610580;28;20045;-79
2022/01/05 00:15:41;;;;;;;4.35;1.83;;;;;;;4.48;80.70;96675.69;2610809;28;20513;-79
2022/01/05 00:16:56;;;;;;;2.85;2.05;;;;;;;4.43;80.53;96673.25;2610721;28;20142;-80
2022/01/05 00:18:12;;;;;;;4.03;1.98;;;;;;;4.60;80.09;96683.03;2610889;28;20496;-79
2022/01/05 00:19:27;;;;;;;5.55;2.15;;;;;;;4.62;80.13;96680.41;2610830;28;20059;-79
2022/01/05 00:20:44;;;;;;;3.33;2.00;;;;;;;4.64;80.40;96683.81;2610979;28;20041;-79
2022/01/05 00:21:59;;;;;;;2.55;1.83;;;;;;;4.63;80.19;96685.56;2610713;28;20072;-79
2022/01/05 00:23:15;;;;;;;3.08;1.80;;;;;;;4.63;80.44;96685.56;2610598;28;20064;-79
2022/01/05 00:24:31;;;;;;;3.28;1.90;;;;;;;4.58;80.62;96682.25;2610753;28;20056;-79
2022/01/05 00:25:46;;;;;;;1.40;1.27;;;;;;;4.52;80.81;96685.88;2610998;28;20052;-79
2022/01/05 00:27:05;;;;;;;2.78;1.50;;;;;;;4.49;80.96;96688.59;2610646;28;20080;-79
2022/01/05 00:28:20;;;;;;;5.95;1.40;;;;;;;4.47;81.25;96686.94;2610703;28;20045;-79
2022/01/05 00:29:36;;;;;;;3.17;1.90;;;;;;;4.45;81.70;96687.00;2610749;28;20396;-79
2022/01/05 00:30:51;;;;;;;3.58;1.90;;;;;;;4.43;81.98;96683.59;2610772;28;20049;-79
2022/01/05 00:32:08;;;;;;;2.17;1.60;;;;;;;4.38;82.21;96670.78;2610812;28;20064;-79
2022/01/05 00:33:24;;;;;;;3.80;1.77;;;;;;;4.35;82.21;96678.66;2610846;28;20045;-79
2022/01/05 00:34:39;;;;;;;3.15;1.80;;;;;;;4.30;82.55;96684.88;2610509;28;20102;-79
2022/01/05 00:35:55;;;;;;;3.60;1.85;;;;;;;4.29;82.41;96685.78;2610776;28;20518;-79
2022/01/05 00:37:11;;;;;;;4.05;1.70;;;;;;;4.30;83.00;96692.66;2610679;28;20056;-79
2022/01/05 00:38:26;;;;;;;3.38;1.80;;;;;;;4.30;83.10;96696.09;2610696;28;20037;-79
2022/01/05 00:39:42;;;;;;;3.58;2.03;;;;;;;4.31;83.32;96684.81;2610907;28;20045;-79
2022/01/05 00:40:57;;;;;;;3.30;1.80;;;;;;;4.30;83.35;96677.13;2610891;28;20095;-79
2022/01/05 00:42:14;;;;;;;2.83;1.73;;;;;;;4.26;83.50;96676.34;2610708;28;20461;-79
2022/01/05 00:43:30;;;;;;;2.92;1.70;;;;;;;4.22;83.44;96678.19;2610811;28;20481;-79
2022/01/05 00:44:46;;;;;;;2.80;1.60;;;;;;;4.19;83.83;96678.28;2610813;28;20543;-79
2022/01/05 00:46:03;;;;;;;3.33;1.80;;;;;;;4.18;83.77;96675.75;2610660;28;20045;-79
2022/01/05 00:47:18;;;;;;;2.78;1.80;;;;;;;4.17;83.94;96671.44;2610556;28;20044;-79
2022/01/05 00:48:35;;;;;;;2.70;1.80;;;;;;;4.18;84.02;96675.75;2610863;28;20438;-79
2022/01/05 00:49:50;;;;;;;4.55;1.80;;;;;;;4.15;84.17;96686.19;2610735;28;20056;-79
2022/01/05 00:51:07;;;;;;;2.28;1.60;;;;;;;4.12;84.13;96689.75;2612358;28;20041;-79
2022/01/05 00:52:23;;;;;;;2.60;1.77;;;;;;;4.12;83.96;96688.88;2612212;28;20083;-79
2022/01/05 00:53:39;;;;;;;4.07;2.08;;;;;;;4.12;84.20;96688.88;2612265;28;20085;-79
2022/01/05 00:54:54;;;;;;;2.92;2.00;;;;;;;4.19;83.46;96692.97;2612772;28;20609;-78
2022/01/05 00:56:10;;;;;;;3.97;1.95;;;;;;;4.26;83.08;96678.09;2612754;28;20048;-78
2022/01/05 00:57:25;;;;;;;3.50;1.90;;;;;;;4.23;83.27;96666.94;2612418;28;20127;-79
2022/01/05 00:58:41;;;;;;;3.83;2.10;;;;;;;4.21;83.48;96660.13;2611486;28;20052;-79
2022/01/05 00:59:57;;;;;;;5.00;2.20;;;;;;;4.18;83.55;96652.41;2612304;28;20052;-79
2022/01/05 01:01:12;;;;;;;4.50;1.98;;;;;;;4.14;83.86;96648.25;2612661;28;20087;-79
2022/01/05 01:02:28;;;;;;;5.55;2.38;;;;;;;4.07;84.09;96643.28;2612893;28;20053;-78
2022/01/05 01:03:44;;;;;;;4.28;2.50;;;;;;;4.03;84.27;96639.06;2612511;28;20064;-78
2022/01/05 01:04:59;;;;;;;5.10;2.58;;;;;;;3.99;84.51;96628.88;2612700;28;20561;-78
2022/01/05 01:06:15;;;;;;;4.35;2.47;;;;;;;3.94;84.70;96629.84;2612479;28;20056;-78
2022/01/05 01:07:31;;;;;;;4.93;2.72;;;;;;;3.89;84.87;96644.69;2612459;28;20135;-79
2022/01/05 01:08:46;;;;;;;5.25;2.80;;;;;;;3.81;84.89;96647.50;2612588;28;20052;-78
2022/01/05 01:10:03;;;;;;;7.57;3.33;;;;;;;3.76;85.06;96643.34;2612491;28;20557;-78
2022/01/05 01:11:18;;;;;;;5.38;3.20;;;;;;;3.75;84.89;96645.06;2612433;28;20049;-78
2022/01/05 01:12:34;;;;;;;4.28;2.50;;;;;;;3.77;84.98;96639.88;2612595;28;20510;-78
2022/01/05 01:13:50;;;;;;;5.35;3.00;;;;;;;3.76;84.97;96639.00;2612535;28;20438;-79
2022/01/05 01:15:09;;;;;;;5.88;2.78;;;;;;;3.72;85.00;96632.22;2612531;28;20049;-79
2022/01/05 01:16:25;;;;;;;5.10;2.65;;;;;;;3.70;85.06;96634.03;2612283;28;20595;-79
2022/01/05 01:17:40;;;;;;;3.40;2.42;;;;;;;3.76;84.78;96628.66;2612508;28;20072;-79
2022/01/05 01:18:56;;;;;;;4.97;3.00;;;;;;;3.87;84.57;96632.66;2612477;28;20176;-78
2022/01/05 01:20:12;;;;;;;4.20;2.08;;;;;;;3.89;83.49;96642.09;2612543;28;20045;-78
2022/01/05 01:21:27;;;;;;;2.38;1.50;;;;;;;3.95;83.56;96646.22;2612422;28;20139;-79
2022/01/05 01:22:43;;;;;;;2.78;1.30;;;;;;;4.14;82.57;96643.94;2612066;28;20055;-78
2022/01/05 01:23:59;;;;;;;3.03;1.73;;;;;;;4.16;82.09;96643.84;2612452;28;20041;-79
2022/01/05 01:25:15;;;;;;;2.30;1.52;;;;;;;4.27;81.89;96641.78;2612570;28;20056;-78
2022/01/05 01:26:31;;;;;;;2.63;1.50;;;;;;;4.29;81.84;96645.16;2612159;28;20110;-78
2022/01/05 01:27:47;;;;;;;2.67;1.30;;;;;;;4.44;80.91;96645.56;2612511;28;20056;-78
2022/01/05 01:29:03;;;;;;;2.72;1.13;;;;;;;4.44;80.99;96650.75;2612488;28;20045;-79
2022/01/05 01:30:18;;;;;;;1.83;1.40;;;;;;;4.49;80.84;96643.69;2612178;28;20859;-78
2022/01/05 01:31:34;;;;;;;1.73;1.02;;;;;;;4.50;80.59;96637.63;2612509;28;20045;-78
2022/01/05 01:32:49;;;;;;;1.50;1.00;;;;;;;4.52;80.38;96641.81;2612154;28;20053;-78
2022/01/05 01:34:05;;;;;;;1.38;1.15;;;;;;;4.51;80.41;96639.31;2612343;28;20510;-78
2022/01/05 01:35:21;;;;;;;3.00;1.00;;;;;;;4.48;80.65;96642.00;2612518;28;20049;-79
2022/01/05 01:36:36;;;;;;;1.20;0.90;;;;;;;4.43;80.68;96644.75;2612228;28;20048;-79
2022/01/05 01:37:53;;;;;;;1.52;1.10;;;;;;;4.46;80.89;96643.78;2612278;28;20560;-78
2022/01/05 01:39:09;;;;;;;1.60;0.93;;;;;;;4.39;80.94;96637.94;2612418;28;20045;-79
2022/01/05 01:40:24;;;;;;;1.83;0.90;;;;;;;4.39;81.00;96640.53;2612396;28;20099;-79
2022/01/05 01:41:40;;;;;;;1.35;1.13;;;;;;;4.25;81.46;96641.00;2612442;28;20052;-79
2022/01/05 01:42:55;;;;;;;1.92;1.10;;;;;;;4.20;81.86;96638.53;2612187;28;20044;-79
2022/01/05 01:44:11;;;;;;;1.40;1.10;;;;;;;4.21;81.67;96637.66;2612211;28;20056;-78
2022/01/05 01:45:27;;;;;;;1.67;1.10;;;;;;;4.18;81.97;96642.06;2611448;28;20044;-79
2022/01/05 01:46:43;;;;;;;1.52;1.02;;;;;;;4.21;81.88;96647.19;2611949;28;20454;-79
2022/01/05 01:47:58;;;;;;;2.03;1.17;;;;;;;4.22;81.71;96646.28;2612013;28;20106;-78
2022/01/05 01:49:14;;;;;;;1.77;1.10;;;;;;;4.26;81.90;96647.00;2612378;28;20561;-79
2022/01/05 01:50:30;;;;;;;1.80;1.40;;;;;;;4.22;81.85;96654.88;2612342;28;20049;-78
2022/01/05 01:51:46;;;;;;;1.75;1.20;;;;;;;4.33;81.55;96664.06;2611464;28;20110;-79
2022/01/05 01:53:01;;;;;;;1.42;1.15;;;;;;;4.44;81.11;96661.97;2612254;28;20056;-78
2022/01/05 01:54:17;;;;;;;2.13;1.20;;;;;;;4.48;81.01;96660.97;2612265;28;20057;-79
2022/01/05 01:55:35;;;;;;;3.30;1.40;;;;;;;4.50;80.49;96660.94;2612301;28;20045;-78
2022/01/05 01:56:51;;;;;;;2.72;1.33;;;;;;;4.48;80.93;96657.56;2612110;28;20515;-79
2022/01/05 01:58:07;;;;;;;3.33;1.85;;;;;;;4.48;80.76;96657.56;2612198;28;20053;-79
2022/01/05 01:59:23;;;;;;;2.72;1.50;;;;;;;4.47;80.75;96661.00;2612231;28;20041;-78
2022/01/05 02:00:39;;;;;;;3.05;1.60;;;;;;;4.48;80.87;96665.31;2612219;28;20052;-79
2022/01/05 02:01:55;;;;;;;2.90;1.23;;;;;;;4.43;80.81;96669.78;2611723;28;20059;-78
2022/01/05 02:03:14;;;;;;;2.28;1.48;;;;;;;4.46;80.53;96675.72;2611770;28;20583;-78
2022/01/05 02:04:30;;;;;;;2.67;1.50;;;;;;;4.52;80.55;96674.69;2612333;28;20056;-79
2022/01/05 02:05:45;;;;;;;1.77;1.20;;;;;;;4.57;80.47;96669.34;2612175;28;20499;-78
2022/01/05 02:07:03;;;;;;;2.10;1.38;;;;;;;4.41;80.62;96677.63;2612014;28;20059;-78
2022/01/05 02:08:18;;;;;;;2.42;1.40;;;;;;;4.35;81.35;96673.50;2612181;28;20052;-78
2022/01/05 02:09:34;;;;;;;1.80;1.30;;;;;;;4.33;81.49;96670.09;2612102;28;20053;-78
2022/01/05 02:10:49;;;;;;;1.60;1.33;;;;;;;4.30;81.68;96672.75;2612059;28;20514;-79
2022/01/05 02:12:06;;;;;;;2.60;1.35;;;;;;;4.33;81.56;96669.25;2612065;28;20044;-78
2022/01/05 02:13:21;;;;;;;2.10;1.27;;;;;;;4.30;81.58;96661.56;2611903;28;20059;-79
2022/01/05 02:14:37;;;;;;;2.78;1.20;;;;;;;4.34;81.46;96657.97;2611809;28;20065;-79
2022/01/05 02:15:53;;;;;;;1.38;1.05;;;;;;;4.39;80.96;96661.25;2612032;28;20407;-79
2022/01/05 02:17:21;;;;;;;1.77;1.20;;;;;;;4.36;81.16;96667.41;2611940;28;20049;-79
2022/01/05 02:19:56;;;;;;;1.65;1.15;;;;;;;4.33;81.34;96667.50;2612056;28;20045;-78
2022/01/05 02:21:14;;;;;;;2.58;1.27;;;;;;;4.39;81.63;96682.00;2611862;28;20047;-78
2022/01/05 02:22:29;;;;;;;2.80;1.30;;;;;;;4.37;81.08;96689.81;2612110;28;20049;-79
2022/01/05 02:23:45;;;;;;;2.58;1.20;;;;;;;4.41;81.39;96688.00;2611821;28;20052;-79
2022/01/05 02:25:00;;;;;;;2.00;1.27;;;;;;;4.46;80.89;96687.81;2612159;28;20095;-78
2022/01/05 02:26:16;;;;;;;1.92;1.20;;;;;;;4.44;81.19;96692.22;2611724;28;20049;-78
2022/01/05 02:27:32;;;;;;;1.60;1.20;;;;;;;4.37;81.02;96694.16;2611919;28;20045;-78
2022/01/05 02:28:47;;;;;;;1.80;1.15;;;;;;;4.41;81.31;96703.53;2611805;28;20461;-78
2022/01/05 02:30:04;;;;;;;1.13;1.02;;;;;;;4.49;80.92;96705.88;2611965;28;20514;-78
2022/01/05 02:31:19;;;;;;;1.80;1.27;;;;;;;4.55;80.74;96702.25;2611842;28;20051;-78
2022/01/05 02:32:35;;;;;;;1.77;1.00;;;;;;;4.52;80.77;96706.63;2611969;28;20048;-79
2022/01/05 02:33:50;;;;;;;2.30;1.30;;;;;;;4.50;80.79;96702.41;2611467;28;20048;-79
2022/01/05 02:35:08;;;;;;;1.33;1.10;;;;;;;4.44;81.24;96697.41;2611962;28;20065;-79
2022/01/05 02:36:24;;;;;;;2.38;1.17;;;;;;;4.41;81.86;96692.31;2611656;28;20815;-79
2022/01/05 02:37:45;;;;;;;1.52;1.10;;;;;;;4.41;81.35;96694.91;2611713;28;20048;-78
2022/01/05 02:39:00;;;;;;;1.85;1.02;;;;;;;4.47;80.78;96686.94;2611749;28;20114;-79
2022/01/05 02:40:18;;;;;;;1.85;1.13;;;;;;;4.46;81.11;96683.50;2611783;28;20060;-79
2022/01/05 02:41:34;;;;;;;1.73;1.02;;;;;;;4.45;81.29;96683.53;2611812;28;20052;-79
2022/01/05 02:42:54;;;;;;;1.08;0.90;;;;;;;4.49;80.59;96677.38;2611664;28;20048;-79
2022/01/05 02:44:09;;;;;;;1.17;0.90;;;;;;;4.66;79.98;96674.22;2611817;28;20139;-78
2022/01/05 02:45:25;;;;;;;1.00;0.85;;;;;;;4.68;79.36;96674.19;2611510;28;20126;-78
2022/01/05 02:46:40;;;;;;;1.58;1.10;;;;;;;4.71;79.58;96661.13;2611536;28;20466;-78
2022/01/05 02:47:56;;;;;;;1.17;0.90;;;;;;;4.65;80.45;96657.84;2611696;28;20056;-79
2022/01/05 02:49:12;;;;;;;1.52;0.88;;;;;;;4.58;80.50;96658.09;2611780;28;20056;-79
2022/01/05 02:50:27;;;;;;;1.60;0.90;;;;;;;4.50;80.72;96659.19;2611754;28;20451;-78
2022/01/05 02:51:43;;;;;;;2.38;0.90;;;;;;;4.46;81.21;96657.59;2611660;28;20060;-78
2022/01/05 02:52:58;;;;;;;1.08;0.93;;;;;;;4.54;81.05;96654.75;2611497;28;20111;-78
2022/01/05 02:54:14;;;;;;;1.45;1.10;;;;;;;4.49;81.10;96652.31;2611685;28;20617;-78
2022/01/05 02:55:29;;;;;;;2.38;1.10;;;;;;;4.45;81.39;96655.03;2611749;28;20077;-79
2022/01/05 02:56:45;;;;;;;1.63;1.00;;;;;;;4.43;81.50;96660.28;2611502;28;20071;-78
2022/01/05 02:58:01;;;;;;;1.42;1.10;;;;;;;4.38;81.33;96667.34;2611582;28;20409;-78
2022/01/05 02:59:16;;;;;;;1.35;1.00;;;;;;;4.36;81.78;96651.88;2611478;28;20053;-78
2022/01/05 03:00:32;;;;;;;1.60;1.00;;;;;;;4.47;81.55;96642.88;2611572;28;20060;-78
2022/01/05 03:01:48;;;;;;;1.45;1.25;;;;;;;4.47;81.12;96637.69;2611424;28;20403;-78
2022/01/05 03:03:03;;;;;;;2.22;1.00;;;;;;;4.44;81.36;96637.78;2611499;28;20075;-78
2022/01/05 03:04:19;;;;;;;1.10;0.98;;;;;;;4.51;81.20;96631.53;2611461;28;20045;-79
2022/01/05 03:05:35;;;;;;;0.95;0.90;;;;;;;4.64;80.46;96648.38;2611510;28;20045;-79
2022/01/05 03:06:50;;;;;;;1.73;1.00;;;;;;;4.71;80.22;96658.53;2611255;28;20049;-79
2022/01/05 03:08:06;;;;;;;1.73;0.80;;;;;;;4.76;79.94;96648.88;2611324;28;20049;-79
2022/01/05 03:09:22;;;;;;;0.80;0.70;;;;;;;4.85;79.47;96643.34;2611497;28;20136;-78
2022/01/05 03:10:38;;;;;;;0.88;0.80;;;;;;;4.83;79.18;96637.38;2611510;28;20053;-78
2022/01/05 03:11:53;;;;;;;1.10;0.82;;;;;;;4.78;79.48;96644.47;2611490;28;20045;-78
2022/01/05 03:13:09;;;;;;;1.27;0.90;;;;;;;4.70;79.60;96651.66;2611438;28;20053;-78
2022/01/05 03:14:24;;;;;;;1.15;0.90;;;;;;;4.80;80.18;96645.25;2611105;28;20061;-78
2022/01/05 03:15:40;;;;;;;0.77;0.70;;;;;;;4.83;79.47;96647.75;2611367;28;20055;-79
2022/01/05 03:16:56;;;;;;;1.27;0.82;;;;;;;4.89;79.29;96637.19;2611196;28;20055;-78
2022/01/05 03:18:11;;;;;;;2.00;0.90;;;;;;;4.85;79.36;96634.75;2611034;28;20139;-79
2022/01/05 03:19:27;;;;;;;1.10;0.90;;;;;;;4.75;79.24;96634.19;2611022;28;20048;-78
2022/01/05 03:20:45;;;;;;;1.20;0.75;;;;;;;4.78;79.58;96634.09;2611176;28;20127;-79
2022/01/05 03:22:01;;;;;;;1.67;0.55;;;;;;;4.77;79.14;96641.03;2611059;28;20091;-79
2022/01/05 03:23:17;;;;;;;0.85;0.75;;;;;;;4.85;79.22;96642.53;2611088;28;20072;-78
2022/01/05 03:24:32;;;;;;;1.20;0.68;;;;;;;4.90;78.29;96633.69;2611239;28;20081;-79
2022/01/05 03:25:48;;;;;;;1.25;0.63;;;;;;;4.89;78.75;96638.91;2611260;28;20487;-79
2022/01/05 03:27:04;;;;;;;0.95;0.60;;;;;;;4.87;78.45;96641.53;2611060;28;20410;-79
2022/01/05 03:28:20;;;;;;;1.30;0.90;;;;;;;4.85;78.61;96640.75;2611031;28;20048;-79
2022/01/05 03:29:35;;;;;;;1.85;1.15;;;;;;;4.75;79.11;96640.22;2610979;28;20044;-78
2022/01/05 03:30:51;;;;;;;1.58;1.10;;;;;;;4.86;78.93;96639.03;2610958;28;20080;-78
2022/01/05 03:32:07;;;;;;;1.00;0.90;;;;;;;4.85;78.63;96640.75;2611007;28;20062;-78
2022/01/05 03:33:24;;;;;;;1.00;0.80;;;;;;;4.86;78.85;96632.06;2610765;28;20117;-78
2022/01/05 03:34:40;;;;;;;1.42;0.60;;;;;;;4.82;78.74;96638.28;2610829;28;20491;-78
2022/01/05 03:35:56;;;;;;;1.00;0.80;;;;;;;4.85;78.97;96645.09;2610921;28;20049;-78
2022/01/05 03:37:12;;;;;;;1.25;0.60;;;;;;;4.87;78.85;96643.31;2610714;28;20581;-78
2022/01/05 03:38:28;;;;;;;1.33;1.23;;;;;;;4.89;78.18;96644.97;2611028;28;20507;-78
2022/01/05 03:39:43;;;;;;;1.85;1.15;;;;;;;4.86;78.77;96644.22;2610682;28;20048;-78
2022/01/05 03:40:59;;;;;;;1.25;1.00;;;;;;;4.89;78.61;96649.28;2610798;28;20131;-78
2022/01/05 03:42:15;;;;;;;1.38;1.13;;;;;;;4.87;78.42;96654.50;2611065;28;20399;-78
2022/01/05 03:43:30;;;;;;;1.40;0.70;;;;;;;4.86;79.00;96658.00;2610567;28;20049;-79
2022/01/05 03:44:46;;;;;;;1.35;0.80;;;;;;;4.85;78.46;96653.72;2611037;28;20149;-79
2022/01/05 03:46:02;;;;;;;0.85;0.77;;;;;;;4.87;78.20;96661.47;2610914;28;20495;-79
2022/01/05 03:47:17;;;;;;;0.90;0.68;;;;;;;4.86;78.65;96662.38;2611159;28;20484;-79
2022/01/05 03:48:33;;;;;;;1.10;0.60;;;;;;;4.85;77.81;96665.84;2611172;28;20056;-78
2022/01/05 03:49:48;;;;;;;1.83;0.80;;;;;;;4.85;78.19;96660.66;2610939;28;20075;-79
2022/01/05 03:51:04;;;;;;;0.75;0.70;;;;;;;4.76;78.65;96667.00;2611186;28;20128;-79
2022/01/05 03:52:20;;;;;;;0.70;0.65;;;;;;;4.73;78.73;96664.50;2611051;28;20044;-79
2022/01/05 03:53:35;;;;;;;0.70;0.60;;;;;;;4.69;79.01;96666.38;2611001;28;20777;-79
2022/01/05 03:54:51;;;;;;;0.70;0.60;;;;;;;4.70;78.96;96669.78;2611099;28;20068;-79
2022/01/05 03:56:07;;;;;;;0.82;0.60;;;;;;;4.76;78.61;96673.03;2610379;28;20396;-79
2022/01/05 03:57:23;;;;;;;0.52;0.50;;;;;;;4.88;77.79;96663.97;2609933;28;20051;-79
2022/01/05 03:58:38;;;;;;;0.60;0.50;;;;;;;4.84;77.86;96672.78;2610555;28;20402;-79
2022/01/05 03:59:54;;;;;;;0.50;0.40;;;;;;;4.92;77.92;96667.31;2611049;28;20059;-79
2022/01/05 04:01:09;;;;;;;0.75;0.70;;;;;;;4.93;78.10;96669.88;2610377;28;20045;-79
2022/01/05 04:02:26;;;;;;;0.93;0.63;;;;;;;4.93;78.17;96663.81;2610580;28;20044;-78
2022/01/05 04:03:41;;;;;;;0.98;0.70;;;;;;;4.85;78.59;96664.09;2610695;28;20787;-78
2022/01/05 04:04:57;;;;;;;0.82;0.65;;;;;;;4.81;78.88;96665.94;2610528;28;20044;-79
2022/01/05 04:06:12;;;;;;;1.10;0.60;;;;;;;4.76;79.10;96667.00;2610460;28;20041;-79
2022/01/05 04:07:28;;;;;;;0.93;0.70;;;;;;;4.70;79.51;96680.16;2610949;28;20045;-81
2022/01/05 04:08:43;;;;;;;0.60;0.60;;;;;;;4.68;79.43;96674.19;2610836;28;20098;-79
2022/01/05 04:09:59;;;;;;;1.40;0.90;;;;;;;4.77;78.72;96673.88;2610695;28;20547;-79
2022/01/05 04:11:15;;;;;;;0.90;0.70;;;;;;;4.80;78.84;96672.03;2610935;28;20047;-79
2022/01/05 04:12:30;;;;;;;1.13;0.70;;;;;;;4.63;79.68;96667.41;2610858;28;20049;-79
2022/01/05 04:13:46;;;;;;;0.90;0.90;;;;;;;4.71;80.05;96671.47;2610500;28;20072;-79
2022/01/05 04:15:02;;;;;;;0.77;0.70;;;;;;;4.72;79.55;96673.19;2610841;28;20078;-79
2022/01/05 04:16:18;;;;;;;0.85;0.70;;;;;;;4.76;79.65;96679.97;2610741;28;20049;-79
2022/01/05 04:17:34;;;;;;;0.80;0.60;;;;;;;4.82;79.16;96679.75;2610903;28;20207;-79
2022/01/05 04:18:49;;;;;;;1.35;0.90;;;;;;;4.79;79.59;96677.28;2610972;28;20048;-79
2022/01/05 04:20:05;;;;;;;0.60;0.52;;;;;;;4.79;79.48;96685.06;2610767;28;20465;-79
2022/01/05 04:21:21;;;;;;;1.00;0.82;;;;;;;4.73;79.65;96682.66;2610964;28;20515;-79
2022/01/05 04:22:36;;;;;;;0.90;0.70;;;;;;;4.77;79.53;96681.66;2610877;28;20067;-78
2022/01/05 04:23:52;;;;;;;0.88;0.57;;;;;;;4.77;79.50;96682.50;2610734;28;20057;-78
2022/01/05 04:25:09;;;;;;;0.75;0.60;;;;;;;4.77;78.75;96673.88;2610369;28;20040;-78
2022/01/05 04:26:24;;;;;;;0.95;0.50;;;;;;;4.80;79.00;96678.97;2610833;28;20094;-78
2022/01/05 04:27:40;;;;;;;0.65;0.60;;;;;;;4.82;79.40;96677.16;2610852;28;20041;-78
2022/01/05 04:28:56;;;;;;;0.77;0.70;;;;;;;4.77;79.64;96685.09;2610686;28;20079;-78
2022/01/05 04:30:12;;;;;;;1.38;0.73;;;;;;;4.72;80.12;96680.97;2610772;28;20049;-78
2022/01/05 04:31:28;;;;;;;0.50;0.50;;;;;;;4.75;80.17;96680.84;2611023;28;20045;-78
2022/01/05 04:32:43;;;;;;;0.90;0.60;;;;;;;4.76;80.05;96679.97;2610530;28;20049;-78
2022/01/05 04:33:59;;;;;;;0.68;0.60;;;;;;;4.73;80.17;96673.13;2610556;28;20565;-78
2022/01/05 04:35:15;;;;;;;0.60;0.60;;;;;;;4.71;80.79;96674.06;2610743;28;20509;-78
2022/01/05 04:36:30;;;;;;;0.50;0.50;;;;;;;4.67;80.36;96675.91;2610681;28;20170;-78
2022/01/05 04:37:46;;;;;;;0.25;0.20;;;;;;;4.66;79.63;96667.31;2610613;28;20049;-78
2022/01/05 04:39:02;;;;;;;1.13;0.63;;;;;;;4.65;80.30;96670.81;2610657;28;20082;-78
2022/01/05 04:40:18;;;;;;;0.57;0.57;;;;;;;4.65;80.77;96670.81;2610896;28;20057;-78
2022/01/05 04:41:34;;;;;;;1.25;0.52;;;;;;;4.69;80.99;96666.38;2610761;28;20053;-78
2022/01/05 04:42:49;;;;;;;0.45;0.45;;;;;;;4.64;80.80;96663.94;2610616;28;20502;-78
2022/01/05 04:44:05;;;;;;;0.77;0.50;;;;;;;4.68;81.09;96663.81;2610875;28;20050;-78
2022/01/05 04:45:20;;;;;;;0.50;0.50;;;;;;;4.62;81.36;96660.53;2610692;28;20045;-78
2022/01/05 04:46:36;;;;;;;1.58;0.50;;;;;;;4.58;81.44;96658.94;2610551;28;20056;-78
2022/01/05 04:47:52;;;;;;;0.50;0.47;;;;;;;4.54;81.94;96662.53;2610768;28;20052;-78
2022/01/05 04:49:07;;;;;;;0.65;0.50;;;;;;;4.51;81.83;96663.47;2610744;28;20077;-78
2022/01/05 04:50:23;;;;;;;1.85;0.70;;;;;;;4.46;82.20;96664.50;2610623;28;20087;-78
2022/01/05 04:51:39;;;;;;;0.38;0.38;;;;;;;4.45;80.87;96671.44;2610956;28;20045;-78
2022/01/05 04:52:54;;;;;;;0.40;0.40;;;;;;;4.36;81.58;96667.41;2610677;28;20114;-78
2022/01/05 04:54:10;;;;;;;0.32;0.30;;;;;;;4.37;81.88;96673.41;2610753;28;20518;-78
2022/01/05 04:55:25;;;;;;;2.10;0.60;;;;;;;4.39;82.00;96674.22;2610781;28;20063;-78
2022/01/05 04:56:41;;;;;;;0.50;0.50;;;;;;;4.33;81.68;96677.88;2610659;28;20080;-78
2022/01/05 04:57:57;;;;;;;0.30;0.30;;;;;;;4.29;80.82;96673.66;2607235;28;20407;-78
2022/01/05 04:59:13;;;;;;;0.28;0.28;;;;;;;4.28;81.89;96671.97;2601903;28;20110;-78
2022/01/05 05:00:28;;;;;;;0.40;0.40;;;;;;;4.24;82.21;96670.38;2610500;28;20948;-78
2022/01/05 05:01:44;;;;;;;0.30;0.30;;;;;;;4.23;81.91;96677.28;2610538;28;20041;-78
2022/01/05 05:02:59;;;;;;;0.57;0.30;;;;;;;4.14;81.00;96669.81;2610400;28;20049;-78
2022/01/05 05:04:15;;;;;;;0.20;0.20;;;;;;;4.13;81.49;96675.91;2610626;28;20095;-78
2022/01/05 05:05:31;;;;;;;0.40;0.32;;;;;;;4.13;81.66;96678.50;2610715;28;20045;-78
2022/01/05 05:06:50;;;;;;;0.68;0.68;;;;;;;4.11;82.04;96672.50;2610541;28;20110;-78
2022/01/05 05:08:05;;;;;;;0.40;0.40;;;;;;;4.12;81.96;96673.34;2610507;28;20044;-78
2022/01/05 05:09:21;;;;;;;0.40;0.40;;;;;;;4.12;82.02;96676.81;2610652;28;20049;-78
2022/01/05 05:10:37;;;;;;;1.27;0.50;;;;;;;4.05;81.51;96670.97;2610514;28;20849;-78
2022/01/05 05:11:53;;;;;;;0.75;0.50;;;;;;;4.06;81.86;96669.19;2610605;28;20057;-78
2022/01/05 05:13:10;;;;;;;0.60;0.50;;;;;;;4.07;81.71;96669.16;2610458;28;20052;-78
2022/01/05 05:14:25;;;;;;;0.60;0.40;;;;;;;4.04;81.56;96671.81;2610359;28;20080;-78
2022/01/05 05:15:41;;;;;;;0.40;0.28;;;;;;;4.05;81.62;96675.28;2610597;28;20512;-78
2022/01/05 05:16:57;;;;;;;0.50;0.40;;;;;;;4.07;81.79;96674.34;2610532;28;20045;-78
2022/01/05 05:18:12;;;;;;;0.40;0.40;;;;;;;4.06;81.76;96669.19;2610461;28;20399;-77
2022/01/05 05:19:28;;;;;;;1.27;0.60;;;;;;;4.08;81.50;96675.19;2610633;28;20469;-77
2022/01/05 05:20:44;;;;;;;1.45;0.82;;;;;;;4.05;82.13;96670.97;2610670;28;20076;-78
2022/01/05 05:22:00;;;;;;;1.98;0.88;;;;;;;4.12;81.94;96669.03;2610497;28;20131;-77
2022/01/05 05:23:16;;;;;;;0.52;0.50;;;;;;;4.11;81.64;96675.06;2610474;28;20053;-78
2022/01/05 05:24:32;;;;;;;1.33;0.65;;;;;;;4.09;82.09;96682.91;2610474;28;20057;-77
2022/01/05 05:25:48;;;;;;;0.80;0.60;;;;;;;4.00;82.36;96680.59;2610583;28;20376;-77
2022/01/05 05:27:04;;;;;;;3.10;0.90;;;;;;;3.86;83.19;96672.38;2610357;28;20053;-78
2022/01/05 05:28:19;;;;;;;4.13;2.17;;;;;;;3.78;83.49;96670.03;2610355;28;20053;-77
2022/01/05 05:29:35;;;;;;;2.50;1.20;;;;;;;3.79;83.86;96669.13;2610201;28;20488;-77
2022/01/05 05:30:51;;;;;;;1.90;0.90;;;;;;;3.80;83.92;96663.94;2609965;28;20061;-77
2022/01/05 05:32:07;;;;;;;1.30;0.75;;;;;;;3.97;82.82;96672.91;2610272;28;20045;-78
2022/01/05 05:33:22;;;;;;;0.88;0.50;;;;;;;3.94;82.61;96666.09;2610172;28;20651;-78
2022/01/05 05:34:38;;;;;;;0.95;0.60;;;;;;;3.90;82.34;96668.81;2610155;28;20155;-78
2022/01/05 05:35:53;;;;;;;1.27;0.77;;;;;;;3.81;82.84;96670.78;2610220;28;20509;-78
2022/01/05 05:37:09;;;;;;;0.95;0.70;;;;;;;3.76;83.73;96672.66;2610122;28;20064;-78
2022/01/05 05:38:25;;;;;;;1.42;0.82;;;;;;;3.83;83.38;96675.06;2612149;28;20045;-78
2022/01/05 05:39:41;;;;;;;0.40;0.40;;;;;;;4.00;81.70;96675.41;2611470;28;20048;-78
2022/01/05 05:40:56;;;;;;;0.68;0.50;;;;;;;3.94;81.68;96671.25;2611722;28;20455;-78
2022/01/05 05:42:12;;;;;;;0.80;0.40;;;;;;;3.93;82.39;96669.56;2612132;28;20053;-78
2022/01/05 05:43:27;;;;;;;0.88;0.40;;;;;;;3.92;82.71;96664.47;2612051;28;20106;-81
2022/01/05 05:44:43;;;;;;;1.50;0.50;;;;;;;3.81;82.86;96665.63;2612119;28;20049;-78
2022/01/05 05:45:58;;;;;;;0.40;0.40;;;;;;;3.72;82.72;96671.06;2612401;28;20472;-78
2022/01/05 05:47:14;;;;;;;0.85;0.60;;;;;;;3.79;83.01;96664.81;2612183;28;20041;-79
2022/01/05 05:48:30;;;;;;;0.55;0.40;;;;;;;3.98;81.63;96666.84;2612440;28;20053;-78
2022/01/05 05:49:46;;;;;;;0.52;0.40;;;;;;;3.97;81.54;96672.91;2612263;28;20407;-79
2022/01/05 05:51:01;;;;;;;0.60;0.50;;;;;;;3.99;81.64;96675.47;2612134;28;20049;-78
2022/01/05 05:52:17;;;;;;;0.60;0.50;;;;;;;4.01;81.18;96671.09;2612146;28;20128;-78
2022/01/05 05:53:32;;;;;;;1.40;0.88;;;;;;;4.05;81.11;96681.31;2612190;28;20562;-79
2022/01/05 05:54:48;;;;;;;0.73;0.55;;;;;;;4.13;80.72;96675.91;2611359;28;20052;-78
2022/01/05 05:56:04;;;;;;;0.90;0.50;;;;;;;4.18;80.66;96668.81;2612110;28;20099;-78
2022/01/05 05:57:20;;;;;;;1.20;0.70;;;;;;;4.06;81.01;96674.38;2611864;28;20049;-78
2022/01/05 05:58:35;;;;;;;1.40;0.80;;;;;;;3.91;81.46;96680.84;2612270;28;20045;-79
2022/01/05 05:59:51;;;;;;;1.73;0.82;;;;;;;3.78;81.96;96673.47;2612270;28;20048;-78
2022/01/05 06:01:06;;;;;;;0.52;0.30;;;;;;;3.73;81.78;96670.16;2612048;28;20525;-78
2022/01/05 06:02:22;;;;;;;0.30;0.30;;;;;;;3.73;81.24;96670.16;2612027;28;20418;-78